sensor_id;sensor_type;location;lat;lon;timestamp;temperature;humidity
77100;SHT31;66602;48.922;2.414;2024-03-02T00:00:25;5.87;90.33
77100;SHT31;66602;48.922;2.414;2024-03-02T00:02:52;5.79;90.66
77100;SHT31;66602;48.922;2.414;2024-03-02T00:05:19;5.70;90.97
77100;SHT31;66602;48.922;2.414;2024-03-02T00:07:47;5.73;91.26
77100;SHT31;66602;48.922;2.414;2024-03-02T00:10:20;5.82;90.91
77100;SHT31;66602;48.922;2.414;2024-03-02T00:12:47;5.76;91.02
77100;SHT31;66602;48.922;2.414;2024-03-02T00:17:57;5.82;90.66
77100;SHT31;66602;48.922;2.414;2024-03-02T00:20:24;5.76;90.85
77100;SHT31;66602;48.922;2.414;2024-03-02T00:23:02;5.65;91.18
77100;SHT31;66602;48.922;2.414;2024-03-02T00:25:37;5.60;91.39
77100;SHT31;66602;48.922;2.414;2024-03-02T00:28:04;5.62;91.46
77100;SHT31;66602;48.922;2.414;2024-03-02T00:30:52;5.59;91.82
77100;SHT31;66602;48.922;2.414;2024-03-02T00:33:20;5.49;91.99
77100;SHT31;66602;48.922;2.414;2024-03-02T00:35:46;5.49;92.31
77100;SHT31;66602;48.922;2.414;2024-03-02T00:38:13;5.54;92.14
77100;SHT31;66602;48.922;2.414;2024-03-02T00:40:43;5.63;91.95
77100;SHT31;66602;48.922;2.414;2024-03-02T00:43:39;5.60;92.10
77100;SHT31;66602;48.922;2.414;2024-03-02T00:46:07;5.59;92.17
77100;SHT31;66602;48.922;2.414;2024-03-02T00:48:33;5.55;92.12
77100;SHT31;66602;48.922;2.414;2024-03-02T00:51:03;5.59;92.02
77100;SHT31;66602;48.922;2.414;2024-03-02T00:53:32;5.54;92.21
77100;SHT31;66602;48.922;2.414;2024-03-02T00:56:01;5.49;92.43
77100;SHT31;66602;48.922;2.414;2024-03-02T00:58:26;5.55;92.64
77100;SHT31;66602;48.922;2.414;2024-03-02T01:00:52;5.44;92.80
77100;SHT31;66602;48.922;2.414;2024-03-02T01:03:18;5.51;92.98
77100;SHT31;66602;48.922;2.414;2024-03-02T01:05:44;5.38;92.99
77100;SHT31;66602;48.922;2.414;2024-03-02T01:08:11;5.41;93.27
77100;SHT31;66602;48.922;2.414;2024-03-02T01:10:36;5.54;93.16
77100;SHT31;66602;48.922;2.414;2024-03-02T01:13:02;5.70;92.21
77100;SHT31;66602;48.922;2.414;2024-03-02T01:15:27;5.66;92.09
77100;SHT31;66602;48.922;2.414;2024-03-02T01:17:53;5.60;92.23
77100;SHT31;66602;48.922;2.414;2024-03-02T01:20:18;5.49;92.34
77100;SHT31;66602;48.922;2.414;2024-03-02T01:22:44;5.42;92.78
77100;SHT31;66602;48.922;2.414;2024-03-02T01:25:10;5.45;92.97
77100;SHT31;66602;48.922;2.414;2024-03-02T01:27:35;5.41;92.99
77100;SHT31;66602;48.922;2.414;2024-03-02T01:30:00;5.44;93.16
77100;SHT31;66602;48.922;2.414;2024-03-02T01:32:26;5.42;92.89
77100;SHT31;66602;48.922;2.414;2024-03-02T01:34:52;5.41;92.79
77100;SHT31;66602;48.922;2.414;2024-03-02T01:37:17;5.41;93.16
77100;SHT31;66602;48.922;2.414;2024-03-02T01:39:43;5.35;93.17
77100;SHT31;66602;48.922;2.414;2024-03-02T01:42:09;5.39;93.20
77100;SHT31;66602;48.922;2.414;2024-03-02T01:44:36;5.51;92.81
77100;SHT31;66602;48.922;2.414;2024-03-02T01:47:01;5.56;92.36
77100;SHT31;66602;48.922;2.414;2024-03-02T01:49:27;5.49;92.25
77100;SHT31;66602;48.922;2.414;2024-03-02T01:51:52;5.41;92.61
77100;SHT31;66602;48.922;2.414;2024-03-02T01:54:18;5.34;92.92
77100;SHT31;66602;48.922;2.414;2024-03-02T01:56:43;5.30;93.24
77100;SHT31;66602;48.922;2.414;2024-03-02T01:59:11;5.41;93.41
77100;SHT31;66602;48.922;2.414;2024-03-02T02:01:38;5.56;92.49
77100;SHT31;66602;48.922;2.414;2024-03-02T02:04:03;5.55;92.50
77100;SHT31;66602;48.922;2.414;2024-03-02T02:06:29;5.55;92.43
77100;SHT31;66602;48.922;2.414;2024-03-02T02:08:55;5.52;92.35
77100;SHT31;66602;48.922;2.414;2024-03-02T02:11:20;5.56;92.36
77100;SHT31;66602;48.922;2.414;2024-03-02T02:13:46;5.45;92.23
77100;SHT31;66602;48.922;2.414;2024-03-02T02:16:11;5.54;92.39
77100;SHT31;66602;48.922;2.414;2024-03-02T02:18:37;5.62;92.16
77100;SHT31;66602;48.922;2.414;2024-03-02T02:21:03;5.51;92.14
77100;SHT31;66602;48.922;2.414;2024-03-02T02:23:29;5.35;92.25
77100;SHT31;66602;48.922;2.414;2024-03-02T02:25:54;5.36;92.55
77100;SHT31;66602;48.922;2.414;2024-03-02T02:28:20;5.25;92.92
77100;SHT31;66602;48.922;2.414;2024-03-02T02:30:45;5.18;93.07
77100;SHT31;66602;48.922;2.414;2024-03-02T02:33:11;5.14;93.29
77100;SHT31;66602;48.922;2.414;2024-03-02T02:35:36;5.21;93.48
77100;SHT31;66602;48.922;2.414;2024-03-02T02:38:03;5.18;93.41
77100;SHT31;66602;48.922;2.414;2024-03-02T02:40:28;5.17;93.27
77100;SHT31;66602;48.922;2.414;2024-03-02T02:42:57;5.14;93.31
77100;SHT31;66602;48.922;2.414;2024-03-02T02:45:24;5.14;93.23
77100;SHT31;66602;48.922;2.414;2024-03-02T02:47:51;5.17;93.26
77100;SHT31;66602;48.922;2.414;2024-03-02T02:50:16;5.07;93.22
77100;SHT31;66602;48.922;2.414;2024-03-02T02:52:42;4.91;93.31
77100;SHT31;66602;48.922;2.414;2024-03-02T02:55:10;5.01;93.92
77100;SHT31;66602;48.922;2.414;2024-03-02T02:57:37;4.94;93.75
77100;SHT31;66602;48.922;2.414;2024-03-02T03:00:12;4.86;93.57
77100;SHT31;66602;48.922;2.414;2024-03-02T03:02:41;5.00;93.87
77100;SHT31;66602;48.922;2.414;2024-03-02T03:05:11;5.04;93.52
77100;SHT31;66602;48.922;2.414;2024-03-02T03:07:39;4.98;93.66
77100;SHT31;66602;48.922;2.414;2024-03-02T03:10:06;5.04;93.31
77100;SHT31;66602;48.922;2.414;2024-03-02T03:12:32;4.98;93.29
77100;SHT31;66602;48.922;2.414;2024-03-02T03:14:58;5.03;93.34
77100;SHT31;66602;48.922;2.414;2024-03-02T03:17:23;5.11;93.30
77100;SHT31;66602;48.922;2.414;2024-03-02T03:19:49;5.18;92.87
77100;SHT31;66602;48.922;2.414;2024-03-02T03:22:15;5.14;92.72
77100;SHT31;66602;48.922;2.414;2024-03-02T03:24:41;5.31;92.28
77100;SHT31;66602;48.922;2.414;2024-03-02T03:27:06;5.13;92.30
77100;SHT31;66602;48.922;2.414;2024-03-02T03:29:32;5.11;92.76
77100;SHT31;66602;48.922;2.414;2024-03-02T03:31:57;5.14;92.67
77100;SHT31;66602;48.922;2.414;2024-03-02T03:34:22;5.13;92.69
77100;SHT31;66602;48.922;2.414;2024-03-02T03:36:48;5.21;92.73
77100;SHT31;66602;48.922;2.414;2024-03-02T03:39:13;5.10;92.52
77100;SHT31;66602;48.922;2.414;2024-03-02T03:41:40;5.08;92.86
77100;SHT31;66602;48.922;2.414;2024-03-02T03:44:05;4.93;92.99
77100;SHT31;66602;48.922;2.414;2024-03-02T03:46:31;4.87;93.25
77100;SHT31;66602;48.922;2.414;2024-03-02T03:48:56;4.81;93.66
77100;SHT31;66602;48.922;2.414;2024-03-02T03:51:22;4.84;93.89
77100;SHT31;66602;48.922;2.414;2024-03-02T03:53:48;4.83;93.92
77100;SHT31;66602;48.922;2.414;2024-03-02T03:56:14;4.91;93.61
77100;SHT31;66602;48.922;2.414;2024-03-02T03:58:39;4.90;93.45
77100;SHT31;66602;48.922;2.414;2024-03-02T04:01:05;4.91;93.59
77100;SHT31;66602;48.922;2.414;2024-03-02T04:03:30;4.96;93.35
77100;SHT31;66602;48.922;2.414;2024-03-02T04:05:56;4.96;93.02
77100;SHT31;66602;48.922;2.414;2024-03-02T04:08:21;5.07;92.82
77100;SHT31;66602;48.922;2.414;2024-03-02T04:10:47;5.08;92.53
77100;SHT31;66602;48.922;2.414;2024-03-02T04:13:12;5.07;92.52
77100;SHT31;66602;48.922;2.414;2024-03-02T04:15:38;5.08;92.52
77100;SHT31;66602;48.922;2.414;2024-03-02T04:18:03;5.11;92.23
77100;SHT31;66602;48.922;2.414;2024-03-02T04:20:29;5.14;92.37
77100;SHT31;66602;48.922;2.414;2024-03-02T04:22:55;5.13;92.17
77100;SHT31;66602;48.922;2.414;2024-03-02T04:25:21;5.15;91.89
77100;SHT31;66602;48.922;2.414;2024-03-02T04:27:46;5.21;91.63
77100;SHT31;66602;48.922;2.414;2024-03-02T04:30:12;5.04;91.91
77100;SHT31;66602;48.922;2.414;2024-03-02T04:32:38;5.07;92.09
77100;SHT31;66602;48.922;2.414;2024-03-02T04:35:04;5.11;91.72
77100;SHT31;66602;48.922;2.414;2024-03-02T04:37:33;5.21;91.48
77100;SHT31;66602;48.922;2.414;2024-03-02T04:39:58;5.17;91.36
77100;SHT31;66602;48.922;2.414;2024-03-02T04:42:23;5.08;91.66
77100;SHT31;66602;48.922;2.414;2024-03-02T04:44:49;5.11;91.69
77100;SHT31;66602;48.922;2.414;2024-03-02T04:47:15;5.07;91.58
77100;SHT31;66602;48.922;2.414;2024-03-02T04:49:40;5.05;91.62
77100;SHT31;66602;48.922;2.414;2024-03-02T04:52:06;5.15;91.31
77100;SHT31;66602;48.922;2.414;2024-03-02T04:54:31;5.20;91.00
77100;SHT31;66602;48.922;2.414;2024-03-02T04:56:57;5.13;90.93
77100;SHT31;66602;48.922;2.414;2024-03-02T04:59:23;5.05;91.39
77100;SHT31;66602;48.922;2.414;2024-03-02T05:01:49;5.10;91.47
77100;SHT31;66602;48.922;2.414;2024-03-02T05:04:14;5.08;91.41
77100;SHT31;66602;48.922;2.414;2024-03-02T05:06:40;5.15;91.19
77100;SHT31;66602;48.922;2.414;2024-03-02T05:09:07;5.13;91.16
77100;SHT31;66602;48.922;2.414;2024-03-02T05:11:32;5.04;91.48
77100;SHT31;66602;48.922;2.414;2024-03-02T05:14:04;5.11;91.46
77100;SHT31;66602;48.922;2.414;2024-03-02T05:16:33;5.07;91.54
77100;SHT31;66602;48.922;2.414;2024-03-02T05:18:59;5.07;91.63
77100;SHT31;66602;48.922;2.414;2024-03-02T05:21:24;5.13;91.67
77100;SHT31;66602;48.922;2.414;2024-03-02T05:23:50;5.13;91.49
77100;SHT31;66602;48.922;2.414;2024-03-02T05:26:15;5.04;91.70
77100;SHT31;66602;48.922;2.414;2024-03-02T05:28:41;4.98;91.98
77100;SHT31;66602;48.922;2.414;2024-03-02T05:31:10;4.94;92.05
77100;SHT31;66602;48.922;2.414;2024-03-02T05:33:38;5.01;92.16
77100;SHT31;66602;48.922;2.414;2024-03-02T05:36:04;5.04;92.15
77100;SHT31;66602;48.922;2.414;2024-03-02T05:38:29;4.98;92.06
77100;SHT31;66602;48.922;2.414;2024-03-02T05:40:55;4.88;92.38
77100;SHT31;66602;48.922;2.414;2024-03-02T05:43:20;4.84;92.45
77100;SHT31;66602;48.922;2.414;2024-03-02T05:45:46;4.84;92.88
77100;SHT31;66602;48.922;2.414;2024-03-02T05:48:11;4.83;93.01
77100;SHT31;66602;48.922;2.414;2024-03-02T05:50:37;5.00;92.77
77100;SHT31;66602;48.922;2.414;2024-03-02T05:53:02;4.91;92.72
77100;SHT31;66602;48.922;2.414;2024-03-02T05:55:28;4.84;93.02
77100;SHT31;66602;48.922;2.414;2024-03-02T05:57:53;4.98;92.93
77100;SHT31;66602;48.922;2.414;2024-03-02T06:00:31;5.07;92.62
77100;SHT31;66602;48.922;2.414;2024-03-02T06:02:56;4.97;92.54
77100;SHT31;66602;48.922;2.414;2024-03-02T06:05:22;4.97;92.86
77100;SHT31;66602;48.922;2.414;2024-03-02T06:07:47;5.04;92.90
77100;SHT31;66602;48.922;2.414;2024-03-02T06:10:13;4.96;92.93
77100;SHT31;66602;48.922;2.414;2024-03-02T06:12:38;4.91;93.19
77100;SHT31;66602;48.922;2.414;2024-03-02T06:15:04;4.90;93.40
77100;SHT31;66602;48.922;2.414;2024-03-02T06:17:30;4.91;93.50
77100;SHT31;66602;48.922;2.414;2024-03-02T06:19:56;5.01;93.53
77100;SHT31;66602;48.922;2.414;2024-03-02T06:22:21;5.07;93.37
77100;SHT31;66602;48.922;2.414;2024-03-02T06:24:50;5.14;93.05
77100;SHT31;66602;48.922;2.414;2024-03-02T06:27:15;5.18;92.80
77100;SHT31;66602;48.922;2.414;2024-03-02T06:29:41;5.21;92.84
77100;SHT31;66602;48.922;2.414;2024-03-02T06:32:07;5.18;92.66
77100;SHT31;66602;48.922;2.414;2024-03-02T06:34:32;5.15;93.01
77100;SHT31;66602;48.922;2.414;2024-03-02T06:36:58;5.15;93.16
77100;SHT31;66602;48.922;2.414;2024-03-02T06:39:23;5.11;93.27
77100;SHT31;66602;48.922;2.414;2024-03-02T06:41:49;5.25;93.35
77100;SHT31;66602;48.922;2.414;2024-03-02T06:44:14;5.30;93.07
77100;SHT31;66602;48.922;2.414;2024-03-02T06:46:40;5.32;92.99
77100;SHT31;66602;48.922;2.414;2024-03-02T06:49:05;5.42;92.71
77100;SHT31;66602;48.922;2.414;2024-03-02T06:51:31;5.42;92.66
77100;SHT31;66602;48.922;2.414;2024-03-02T06:53:56;5.44;92.67
77100;SHT31;66602;48.922;2.414;2024-03-02T06:56:21;5.54;92.37
77100;SHT31;66602;48.922;2.414;2024-03-02T06:58:47;5.63;91.99
77100;SHT31;66602;48.922;2.414;2024-03-02T07:01:12;5.70;91.70
77100;SHT31;66602;48.922;2.414;2024-03-02T07:03:38;5.73;91.48
77100;SHT31;66602;48.922;2.414;2024-03-02T07:06:06;5.85;91.23
77100;SHT31;66602;48.922;2.414;2024-03-02T07:08:32;5.93;90.98
77100;SHT31;66602;48.922;2.414;2024-03-02T07:10:57;6.03;90.82
77100;SHT31;66602;48.922;2.414;2024-03-02T07:13:23;6.11;90.60
77100;SHT31;66602;48.922;2.414;2024-03-02T07:15:48;6.16;90.38
77100;SHT31;66602;48.922;2.414;2024-03-02T07:18:39;6.25;90.10
77100;SHT31;66602;48.922;2.414;2024-03-02T07:21:11;6.30;89.88
77100;SHT31;66602;48.922;2.414;2024-03-02T07:23:37;6.34;89.83
77100;SHT31;66602;48.922;2.414;2024-03-02T07:26:03;6.38;89.72
77100;SHT31;66602;48.922;2.414;2024-03-02T07:28:28;6.55;89.47
77100;SHT31;66602;48.922;2.414;2024-03-02T07:31:01;6.69;89.09
77100;SHT31;66602;48.922;2.414;2024-03-02T07:33:27;6.79;88.62
77100;SHT31;66602;48.922;2.414;2024-03-02T07:35:54;6.91;88.54
77100;SHT31;66602;48.922;2.414;2024-03-02T07:38:21;6.93;88.02
77100;SHT31;66602;48.922;2.414;2024-03-02T07:40:48;7.10;87.74
77100;SHT31;66602;48.922;2.414;2024-03-02T07:43:19;7.20;87.54
77100;SHT31;66602;48.922;2.414;2024-03-02T07:45:47;7.33;87.01
77100;SHT31;66602;48.922;2.414;2024-03-02T07:48:14;7.40;87.00
77100;SHT31;66602;48.922;2.414;2024-03-02T07:50:41;7.47;86.40
77100;SHT31;66602;48.922;2.414;2024-03-02T07:53:08;7.58;86.05
77100;SHT31;66602;48.922;2.414;2024-03-02T07:55:38;7.65;85.90
77100;SHT31;66602;48.922;2.414;2024-03-02T07:58:06;7.68;85.54
77100;SHT31;66602;48.922;2.414;2024-03-02T08:00:33;7.74;85.62
77100;SHT31;66602;48.922;2.414;2024-03-02T08:03:02;7.88;85.17
77100;SHT31;66602;48.922;2.414;2024-03-02T08:05:28;8.02;85.12
77100;SHT31;66602;48.922;2.414;2024-03-02T08:07:54;8.10;84.16
77100;SHT31;66602;48.922;2.414;2024-03-02T08:10:25;8.15;84.00
77100;SHT31;66602;48.922;2.414;2024-03-02T08:12:54;8.10;84.19
77100;SHT31;66602;48.922;2.414;2024-03-02T08:15:19;8.10;84.52
77100;SHT31;66602;48.922;2.414;2024-03-02T08:17:45;8.06;84.52
77100;SHT31;66602;48.922;2.414;2024-03-02T08:20:13;8.02;84.84
77100;SHT31;66602;48.922;2.414;2024-03-02T08:22:40;8.02;84.98
77100;SHT31;66602;48.922;2.414;2024-03-02T08:25:07;8.06;85.38
77100;SHT31;66602;48.922;2.414;2024-03-02T08:27:33;8.12;85.09
77100;SHT31;66602;48.922;2.414;2024-03-02T08:29:58;8.15;85.10
77100;SHT31;66602;48.922;2.414;2024-03-02T08:32:24;8.07;85.79
77100;SHT31;66602;48.922;2.414;2024-03-02T08:34:49;7.98;85.40
77100;SHT31;66602;48.922;2.414;2024-03-02T08:37:15;7.95;86.19
77100;SHT31;66602;48.922;2.414;2024-03-02T08:39:40;7.89;86.31
77100;SHT31;66602;48.922;2.414;2024-03-02T08:42:06;7.91;86.36
77100;SHT31;66602;48.922;2.414;2024-03-02T08:44:32;7.92;85.68
77100;SHT31;66602;48.922;2.414;2024-03-02T08:46:58;7.91;85.54
77100;SHT31;66602;48.922;2.414;2024-03-02T08:49:24;7.86;85.24
77100;SHT31;66602;48.922;2.414;2024-03-02T08:51:49;7.84;85.44
77100;SHT31;66602;48.922;2.414;2024-03-02T08:54:21;7.79;86.00
77100;SHT31;66602;48.922;2.414;2024-03-02T08:56:47;7.74;86.27
77100;SHT31;66602;48.922;2.414;2024-03-02T08:59:13;7.67;86.65
77100;SHT31;66602;48.922;2.414;2024-03-02T09:01:38;7.60;87.25
77100;SHT31;66602;48.922;2.414;2024-03-02T09:04:07;7.48;87.57
77100;SHT31;66602;48.922;2.414;2024-03-02T09:06:34;7.37;88.30
77100;SHT31;66602;48.922;2.414;2024-03-02T09:08:59;7.33;88.54
77100;SHT31;66602;48.922;2.414;2024-03-02T09:11:25;7.23;89.36
77100;SHT31;66602;48.922;2.414;2024-03-02T09:13:51;7.19;89.85
77100;SHT31;66602;48.922;2.414;2024-03-02T09:16:16;7.16;90.29
77100;SHT31;66602;48.922;2.414;2024-03-02T09:18:42;7.17;90.61
77100;SHT31;66602;48.922;2.414;2024-03-02T09:21:07;7.19;90.64
77100;SHT31;66602;48.922;2.414;2024-03-02T09:23:33;7.23;90.82
77100;SHT31;66602;48.922;2.414;2024-03-02T09:25:59;7.24;91.01
77100;SHT31;66602;48.922;2.414;2024-03-02T09:28:24;7.17;91.30
77100;SHT31;66602;48.922;2.414;2024-03-02T09:30:50;7.12;91.63
77100;SHT31;66602;48.922;2.414;2024-03-02T09:33:15;7.10;91.86
77100;SHT31;66602;48.922;2.414;2024-03-02T09:35:41;7.07;92.27
77100;SHT31;66602;48.922;2.414;2024-03-02T09:38:06;7.09;92.40
77100;SHT31;66602;48.922;2.414;2024-03-02T09:40:32;7.10;92.48
77100;SHT31;66602;48.922;2.414;2024-03-02T09:42:57;7.17;92.46
77100;SHT31;66602;48.922;2.414;2024-03-02T09:45:24;7.23;92.48
77100;SHT31;66602;48.922;2.414;2024-03-02T09:47:50;7.40;92.64
77100;SHT31;66602;48.922;2.414;2024-03-02T09:50:16;7.51;92.49
77100;SHT31;66602;48.922;2.414;2024-03-02T09:52:42;7.58;91.72
77100;SHT31;66602;48.922;2.414;2024-03-02T09:55:09;7.57;91.79
77100;SHT31;66602;48.922;2.414;2024-03-02T09:57:35;7.70;92.00
77100;SHT31;66602;48.922;2.414;2024-03-02T10:00:00;7.74;91.53
77100;SHT31;66602;48.922;2.414;2024-03-02T10:02:26;7.78;91.56
77100;SHT31;66602;48.922;2.414;2024-03-02T10:04:52;7.82;91.50
77100;SHT31;66602;48.922;2.414;2024-03-02T10:07:18;8.02;91.18
77100;SHT31;66602;48.922;2.414;2024-03-02T10:09:46;8.19;90.64
77100;SHT31;66602;48.922;2.414;2024-03-02T10:12:13;8.33;90.49
77100;SHT31;66602;48.922;2.414;2024-03-02T10:14:39;8.78;89.76
77100;SHT31;66602;48.922;2.414;2024-03-02T10:17:10;9.32;88.59
77100;SHT31;66602;48.922;2.414;2024-03-02T10:19:35;9.36;86.78
77100;SHT31;66602;48.922;2.414;2024-03-02T10:22:07;9.21;87.44
77100;SHT31;66602;48.922;2.414;2024-03-02T10:27:29;8.83;88.22
77100;SHT31;66602;48.922;2.414;2024-03-02T10:29:55;8.59;89.45
77100;SHT31;66602;48.922;2.414;2024-03-02T10:32:22;8.46;89.84
77100;SHT31;66602;48.922;2.414;2024-03-02T10:34:48;8.40;90.24
77100;SHT31;66602;48.922;2.414;2024-03-02T10:37:14;8.33;90.41
77100;SHT31;66602;48.922;2.414;2024-03-02T10:39:40;8.35;91.18
77100;SHT31;66602;48.922;2.414;2024-03-02T10:42:06;8.43;90.34
77100;SHT31;66602;48.922;2.414;2024-03-02T10:44:33;8.46;90.45
77100;SHT31;66602;48.922;2.414;2024-03-02T10:47:02;8.44;89.69
77100;SHT31;66602;48.922;2.414;2024-03-02T10:49:30;8.36;90.02
77100;SHT31;66602;48.922;2.414;2024-03-02T10:51:57;8.40;90.36
77100;SHT31;66602;48.922;2.414;2024-03-02T10:54:22;8.43;90.07
77100;SHT31;66602;48.922;2.414;2024-03-02T10:56:52;8.43;90.69
77100;SHT31;66602;48.922;2.414;2024-03-02T10:59:28;8.42;91.11
77100;SHT31;66602;48.922;2.414;2024-03-02T11:02:01;8.49;90.89
77100;SHT31;66602;48.922;2.414;2024-03-02T11:04:29;8.44;90.87
77100;SHT31;66602;48.922;2.414;2024-03-02T11:07:05;8.32;91.47
77100;SHT31;66602;48.922;2.414;2024-03-02T11:09:34;8.22;91.72
77100;SHT31;66602;48.922;2.414;2024-03-02T11:12:15;8.10;92.44
77100;SHT31;66602;48.922;2.414;2024-03-02T11:14:43;8.07;92.38
77100;SHT31;66602;48.922;2.414;2024-03-02T11:17:09;8.15;90.54
77100;SHT31;66602;48.922;2.414;2024-03-02T11:19:40;8.33;89.35
77100;SHT31;66602;48.922;2.414;2024-03-02T11:22:05;8.50;88.25
77100;SHT31;66602;48.922;2.414;2024-03-02T11:24:32;8.64;88.95
77100;SHT31;66602;48.922;2.414;2024-03-02T11:26:59;8.74;88.56
77100;SHT31;66602;48.922;2.414;2024-03-02T11:32:05;9.00;87.86
77100;SHT31;66602;48.922;2.414;2024-03-02T11:34:34;9.22;88.04
77100;SHT31;66602;48.922;2.414;2024-03-02T11:37:04;9.80;85.96
77100;SHT31;66602;48.922;2.414;2024-03-02T11:39:30;9.79;84.06
77100;SHT31;66602;48.922;2.414;2024-03-02T11:41:57;9.93;85.18
77100;SHT31;66602;48.922;2.414;2024-03-02T11:44:25;9.87;84.85
77100;SHT31;66602;48.922;2.414;2024-03-02T11:47:01;9.73;85.72
77100;SHT31;66602;48.922;2.414;2024-03-02T11:49:44;9.32;85.83
77100;SHT31;66602;48.922;2.414;2024-03-02T11:52:13;8.87;87.18
77100;SHT31;66602;48.922;2.414;2024-03-02T11:54:42;8.81;88.17
77100;SHT31;66602;48.922;2.414;2024-03-02T11:57:18;8.70;89.58
77100;SHT31;66602;48.922;2.414;2024-03-02T11:59:45;8.61;89.94
77100;SHT31;66602;48.922;2.414;2024-03-02T12:02:18;8.56;90.02
77100;SHT31;66602;48.922;2.414;2024-03-02T12:04:45;8.37;90.14
77100;SHT31;66602;48.922;2.414;2024-03-02T12:07:12;8.33;90.53
77100;SHT31;66602;48.922;2.414;2024-03-02T12:09:40;8.25;90.27
77100;SHT31;66602;48.922;2.414;2024-03-02T12:12:07;8.21;90.29
77100;SHT31;66602;48.922;2.414;2024-03-02T12:14:35;8.15;89.98
77100;SHT31;66602;48.922;2.414;2024-03-02T12:17:01;8.13;90.55
77100;SHT31;66602;48.922;2.414;2024-03-02T12:19:28;8.17;90.69
77100;SHT31;66602;48.922;2.414;2024-03-02T12:21:58;8.26;90.63
77100;SHT31;66602;48.922;2.414;2024-03-02T12:24:26;8.26;90.75
77100;SHT31;66602;48.922;2.414;2024-03-02T12:30:13;8.28;90.21
77100;SHT31;66602;48.922;2.414;2024-03-02T12:32:40;8.26;90.41
77100;SHT31;66602;48.922;2.414;2024-03-02T12:35:06;8.23;90.64
77100;SHT31;66602;48.922;2.414;2024-03-02T12:37:32;8.28;90.88
77100;SHT31;66602;48.922;2.414;2024-03-02T12:39:57;8.40;90.84
77100;SHT31;66602;48.922;2.414;2024-03-02T12:42:24;8.54;89.85
77100;SHT31;66602;48.922;2.414;2024-03-02T12:44:52;8.70;89.72
77100;SHT31;66602;48.922;2.414;2024-03-02T12:47:19;8.68;88.45
77100;SHT31;66602;48.922;2.414;2024-03-02T12:49:45;8.74;88.76
77100;SHT31;66602;48.922;2.414;2024-03-02T12:52:14;8.75;88.60
77100;SHT31;66602;48.922;2.414;2024-03-02T12:54:39;8.68;88.30
77100;SHT31;66602;48.922;2.414;2024-03-02T12:57:05;8.61;88.32
77100;SHT31;66602;48.922;2.414;2024-03-02T12:59:30;8.56;88.49
77100;SHT31;66602;48.922;2.414;2024-03-02T13:01:57;8.57;89.02
77100;SHT31;66602;48.922;2.414;2024-03-02T13:04:27;8.57;89.14
77100;SHT31;66602;48.922;2.414;2024-03-02T13:06:56;8.56;89.07
77100;SHT31;66602;48.922;2.414;2024-03-02T13:09:25;8.54;88.77
77100;SHT31;66602;48.922;2.414;2024-03-02T13:11:50;8.47;88.74
77100;SHT31;66602;48.922;2.414;2024-03-02T13:14:16;8.46;89.84
77100;SHT31;66602;48.922;2.414;2024-03-02T13:16:42;8.44;89.46
77100;SHT31;66602;48.922;2.414;2024-03-02T13:19:10;8.49;89.31
77100;SHT31;66602;48.922;2.414;2024-03-02T13:21:36;8.57;88.86
77100;SHT31;66602;48.922;2.414;2024-03-02T13:24:01;8.61;88.68
77100;SHT31;66602;48.922;2.414;2024-03-02T13:26:28;8.66;89.00
77100;SHT31;66602;48.922;2.414;2024-03-02T13:28:54;8.74;89.03
77100;SHT31;66602;48.922;2.414;2024-03-02T13:31:19;8.85;88.41
77100;SHT31;66602;48.922;2.414;2024-03-02T13:33:46;8.98;88.02
77100;SHT31;66602;48.922;2.414;2024-03-02T13:36:12;9.14;87.62
77100;SHT31;66602;48.922;2.414;2024-03-02T13:38:37;9.38;87.72
77100;SHT31;66602;48.922;2.414;2024-03-02T13:41:03;9.55;85.71
77100;SHT31;66602;48.922;2.414;2024-03-02T13:43:28;9.62;86.37
77100;SHT31;66602;48.922;2.414;2024-03-02T13:45:58;9.55;86.08
77100;SHT31;66602;48.922;2.414;2024-03-02T13:48:24;9.46;86.85
77100;SHT31;66602;48.922;2.414;2024-03-02T13:50:51;9.39;86.80
77100;SHT31;66602;48.922;2.414;2024-03-02T13:53:18;9.34;86.99
77100;SHT31;66602;48.922;2.414;2024-03-02T13:55:44;9.14;88.14
77100;SHT31;66602;48.922;2.414;2024-03-02T13:58:10;9.01;88.38
77100;SHT31;66602;48.922;2.414;2024-03-02T14:00:37;8.95;88.46
77100;SHT31;66602;48.922;2.414;2024-03-02T14:03:04;8.91;88.94
77100;SHT31;66602;48.922;2.414;2024-03-02T14:05:30;8.97;89.32
77100;SHT31;66602;48.922;2.414;2024-03-02T14:07:55;8.97;89.15
77100;SHT31;66602;48.922;2.414;2024-03-02T14:10:21;9.10;89.58
77100;SHT31;66602;48.922;2.414;2024-03-02T14:12:48;9.16;89.36
77100;SHT31;66602;48.922;2.414;2024-03-02T14:15:14;9.10;89.53
77100;SHT31;66602;48.922;2.414;2024-03-02T14:17:40;9.04;89.23
77100;SHT31;66602;48.922;2.414;2024-03-02T14:20:06;9.08;89.21
77100;SHT31;66602;48.922;2.414;2024-03-02T14:22:32;9.05;89.24
77100;SHT31;66602;48.922;2.414;2024-03-02T14:24:59;9.10;89.89
77100;SHT31;66602;48.922;2.414;2024-03-02T14:27:25;8.98;89.71
77100;SHT31;66602;48.922;2.414;2024-03-02T14:29:51;8.91;90.02
77100;SHT31;66602;48.922;2.414;2024-03-02T14:32:16;8.89;90.49
77100;SHT31;66602;48.922;2.414;2024-03-02T14:34:42;8.88;90.86
77100;SHT31;66602;48.922;2.414;2024-03-02T14:37:09;8.84;91.20
77100;SHT31;66602;48.922;2.414;2024-03-02T14:39:35;8.83;91.59
77100;SHT31;66602;48.922;2.414;2024-03-02T14:42:01;8.89;91.75
77100;SHT31;66602;48.922;2.414;2024-03-02T14:44:27;8.77;91.59
77100;SHT31;66602;48.922;2.414;2024-03-02T14:46:53;8.73;91.96
77100;SHT31;66602;48.922;2.414;2024-03-02T14:49:18;8.74;92.26
77100;SHT31;66602;48.922;2.414;2024-03-02T14:51:44;8.77;92.40
77100;SHT31;66602;48.922;2.414;2024-03-02T14:54:10;8.80;92.55
77100;SHT31;66602;48.922;2.414;2024-03-02T14:56:36;8.81;92.22
77100;SHT31;66602;48.922;2.414;2024-03-02T14:59:01;8.73;91.96
77100;SHT31;66602;48.922;2.414;2024-03-02T15:01:27;8.68;92.36
77100;SHT31;66602;48.922;2.414;2024-03-02T15:03:53;8.66;92.62
77100;SHT31;66602;48.922;2.414;2024-03-02T15:06:21;8.59;92.86
77100;SHT31;66602;48.922;2.414;2024-03-02T15:08:47;8.52;93.15
77100;SHT31;66602;48.922;2.414;2024-03-02T15:11:13;8.52;93.65
77100;SHT31;66602;48.922;2.414;2024-03-02T15:13:40;8.57;94.39
77100;SHT31;66602;48.922;2.414;2024-03-02T15:16:06;8.53;94.49
77100;SHT31;66602;48.922;2.414;2024-03-02T15:18:31;8.42;94.32
77100;SHT31;66602;48.922;2.414;2024-03-02T15:20:57;8.32;94.21
77100;SHT31;66602;48.922;2.414;2024-03-02T15:23:23;8.29;94.47
77100;SHT31;66602;48.922;2.414;2024-03-02T15:25:52;8.22;94.46
77100;SHT31;66602;48.922;2.414;2024-03-02T15:28:18;8.16;94.39
77100;SHT31;66602;48.922;2.414;2024-03-02T15:30:44;8.12;94.35
77100;SHT31;66602;48.922;2.414;2024-03-02T15:33:10;8.07;94.35
77100;SHT31;66602;48.922;2.414;2024-03-02T15:35:35;8.01;94.23
77100;SHT31;66602;48.922;2.414;2024-03-02T15:38:01;8.05;94.34
77100;SHT31;66602;48.922;2.414;2024-03-02T15:40:27;8.06;94.29
77100;SHT31;66602;48.922;2.414;2024-03-02T15:42:54;8.07;94.08
77100;SHT31;66602;48.922;2.414;2024-03-02T15:45:19;8.03;93.77
77100;SHT31;66602;48.922;2.414;2024-03-02T15:47:45;8.05;93.62
77100;SHT31;66602;48.922;2.414;2024-03-02T15:50:11;8.05;93.37
77100;SHT31;66602;48.922;2.414;2024-03-02T15:52:38;8.05;93.52